sensor_id;sensor_type;location;lat;lon;timestamp;P1;durP1;ratioP1;P2;durP2;ratioP2
59302;SDS011;45074;52.764;6.896;2023-07-13T00:01:29;4.45;;;1.77;;
59302;SDS011;45074;52.764;6.896;2023-07-13T00:03:55;8.23;;;2.15;;
59302;SDS011;45074;52.764;6.896;2023-07-13T00:06:22;6.32;;;2.20;;
59302;SDS011;45074;52.764;6.896;2023-07-13T00:08:48;8.00;;;2.30;;
59302;SDS011;45074;52.764;6.896;2023-07-13T00:11:14;6.25;;;2.25;;
59302;SDS011;45074;52.764;6.896;2023-07-13T00:13:41;8.40;;;2.60;;
59302;SDS011;45074;52.764;6.896;2023-07-13T00:16:08;8.05;;;2.30;;
59302;SDS011;45074;52.764;6.896;2023-07-13T00:18:34;7.65;;;2.10;;
59302;SDS011;45074;52.764;6.896;2023-07-13T00:21:00;6.18;;;2.40;;
59302;SDS011;45074;52.764;6.896;2023-07-13T00:23:36;9.35;;;2.40;;
59302;SDS011;45074;52.764;6.896;2023-07-13T00:26:06;9.75;;;2.50;;
59302;SDS011;45074;52.764;6.896;2023-07-13T00:28:34;7.82;;;2.30;;
59302;SDS011;45074;52.764;6.896;2023-07-13T00:31:00;9.25;;;2.80;;
59302;SDS011;45074;52.764;6.896;2023-07-13T00:33:29;7.75;;;2.40;;
59302;SDS011;45074;52.764;6.896;2023-07-13T00:35:55;10.48;;;2.70;;
59302;SDS011;45074;52.764;6.896;2023-07-13T00:38:21;8.27;;;2.58;;
59302;SDS011;45074;52.764;6.896;2023-07-13T00:40:47;8.45;;;2.45;;
59302;SDS011;45074;52.764;6.896;2023-07-13T00:43:14;6.75;;;2.60;;
59302;SDS011;45074;52.764;6.896;2023-07-13T00:48:08;6.80;;;2.42;;
59302;SDS011;45074;52.764;6.896;2023-07-13T00:50:35;9.07;;;2.25;;
59302;SDS011;45074;52.764;6.896;2023-07-13T00:53:00;8.95;;;2.58;;
59302;SDS011;45074;52.764;6.896;2023-07-13T00:55:27;7.85;;;2.67;;
59302;SDS011;45074;52.764;6.896;2023-07-13T00:57:53;8.23;;;2.33;;
59302;SDS011;45074;52.764;6.896;2023-07-13T01:00:19;7.45;;;2.15;;
59302;SDS011;45074;52.764;6.896;2023-07-13T01:02:47;9.52;;;2.55;;
59302;SDS011;45074;52.764;6.896;2023-07-13T01:05:15;8.52;;;2.50;;
59302;SDS011;45074;52.764;6.896;2023-07-13T01:07:43;8.10;;;2.85;;
59302;SDS011;45074;52.764;6.896;2023-07-13T01:10:09;9.40;;;2.80;;
59302;SDS011;45074;52.764;6.896;2023-07-13T01:12:37;8.52;;;2.40;;
59302;SDS011;45074;52.764;6.896;2023-07-13T01:15:03;14.60;;;2.60;;
59302;SDS011;45074;52.764;6.896;2023-07-13T01:17:31;10.38;;;2.50;;
59302;SDS011;45074;52.764;6.896;2023-07-13T01:20:00;7.00;;;2.38;;
59302;SDS011;45074;52.764;6.896;2023-07-13T01:22:26;8.07;;;2.83;;
59302;SDS011;45074;52.764;6.896;2023-07-13T01:24:52;8.77;;;2.83;;
59302;SDS011;45074;52.764;6.896;2023-07-13T01:27:25;7.57;;;2.20;;
59302;SDS011;45074;52.764;6.896;2023-07-13T01:29:51;8.25;;;2.53;;
59302;SDS011;45074;52.764;6.896;2023-07-13T01:32:19;10.48;;;2.55;;
59302;SDS011;45074;52.764;6.896;2023-07-13T01:34:49;8.07;;;2.58;;
59302;SDS011;45074;52.764;6.896;2023-07-13T01:37:21;12.13;;;2.63;;
59302;SDS011;45074;52.764;6.896;2023-07-13T01:39:48;9.23;;;2.40;;
59302;SDS011;45074;52.764;6.896;2023-07-13T01:42:14;8.63;;;2.78;;
59302;SDS011;45074;52.764;6.896;2023-07-13T01:44:39;9.43;;;2.63;;
59302;SDS011;45074;52.764;6.896;2023-07-13T01:47:05;9.25;;;2.40;;
59302;SDS011;45074;52.764;6.896;2023-07-13T01:49:31;10.27;;;2.67;;
59302;SDS011;45074;52.764;6.896;2023-07-13T01:51:57;8.73;;;2.83;;
59302;SDS011;45074;52.764;6.896;2023-07-13T01:54:22;8.98;;;2.58;;
59302;SDS011;45074;52.764;6.896;2023-07-13T01:56:48;10.32;;;2.92;;
59302;SDS011;45074;52.764;6.896;2023-07-13T01:59:13;7.88;;;2.50;;
59302;SDS011;45074;52.764;6.896;2023-07-13T02:01:39;8.20;;;2.40;;
59302;SDS011;45074;52.764;6.896;2023-07-13T02:04:05;10.20;;;2.78;;
59302;SDS011;45074;52.764;6.896;2023-07-13T02:06:31;10.50;;;2.80;;
59302;SDS011;45074;52.764;6.896;2023-07-13T02:08:57;6.78;;;2.08;;
59302;SDS011;45074;52.764;6.896;2023-07-13T02:11:23;10.48;;;2.65;;
59302;SDS011;45074;52.764;6.896;2023-07-13T02:13:49;11.10;;;2.60;;
59302;SDS011;45074;52.764;6.896;2023-07-13T02:16:16;9.13;;;2.45;;
59302;SDS011;45074;52.764;6.896;2023-07-13T02:18:41;10.32;;;2.40;;
59302;SDS011;45074;52.764;6.896;2023-07-13T02:21:07;8.90;;;2.53;;
59302;SDS011;45074;52.764;6.896;2023-07-13T02:23:33;8.82;;;2.78;;
59302;SDS011;45074;52.764;6.896;2023-07-13T02:25:59;10.60;;;2.80;;
59302;SDS011;45074;52.764;6.896;2023-07-13T02:28:27;11.95;;;2.78;;
59302;SDS011;45074;52.764;6.896;2023-07-13T02:30:53;11.40;;;2.42;;
59302;SDS011;45074;52.764;6.896;2023-07-13T02:33:19;10.85;;;2.65;;
59302;SDS011;45074;52.764;6.896;2023-07-13T02:35:44;9.05;;;2.58;;
59302;SDS011;45074;52.764;6.896;2023-07-13T02:38:10;8.93;;;2.53;;
59302;SDS011;45074;52.764;6.896;2023-07-13T02:40:36;9.82;;;2.70;;
59302;SDS011;45074;52.764;6.896;2023-07-13T02:43:02;9.80;;;2.80;;
59302;SDS011;45074;52.764;6.896;2023-07-13T02:45:28;7.82;;;2.60;;
59302;SDS011;45074;52.764;6.896;2023-07-13T02:47:54;10.20;;;2.45;;
59302;SDS011;45074;52.764;6.896;2023-07-13T02:50:20;10.60;;;3.05;;
59302;SDS011;45074;52.764;6.896;2023-07-13T02:52:45;12.77;;;3.05;;
59302;SDS011;45074;52.764;6.896;2023-07-13T02:55:11;11.20;;;2.88;;
59302;SDS011;45074;52.764;6.896;2023-07-13T02:57:36;8.38;;;3.10;;
59302;SDS011;45074;52.764;6.896;2023-07-13T03:00:03;9.23;;;2.58;;
59302;SDS011;45074;52.764;6.896;2023-07-13T03:02:32;10.48;;;2.53;;
59302;SDS011;45074;52.764;6.896;2023-07-13T03:04:59;12.73;;;3.38;;
59302;SDS011;45074;52.764;6.896;2023-07-13T03:07:25;9.00;;;2.63;;
59302;SDS011;45074;52.764;6.896;2023-07-13T03:09:54;10.40;;;2.95;;
59302;SDS011;45074;52.764;6.896;2023-07-13T03:12:21;8.85;;;2.42;;
59302;SDS011;45074;52.764;6.896;2023-07-13T03:14:47;6.88;;;2.38;;
59302;SDS011;45074;52.764;6.896;2023-07-13T03:17:12;9.23;;;3.13;;
59302;SDS011;45074;52.764;6.896;2023-07-13T03:19:38;8.65;;;2.63;;
59302;SDS011;45074;52.764;6.896;2023-07-13T03:22:03;9.90;;;2.70;;
59302;SDS011;45074;52.764;6.896;2023-07-13T03:24:29;11.07;;;3.05;;
59302;SDS011;45074;52.764;6.896;2023-07-13T03:26:57;8.85;;;2.80;;
59302;SDS011;45074;52.764;6.896;2023-07-13T03:29:23;9.52;;;3.30;;
59302;SDS011;45074;52.764;6.896;2023-07-13T03:31:48;11.88;;;3.13;;
59302;SDS011;45074;52.764;6.896;2023-07-13T03:34:14;10.98;;;2.70;;
59302;SDS011;45074;52.764;6.896;2023-07-13T03:36:39;8.75;;;3.17;;
59302;SDS011;45074;52.764;6.896;2023-07-13T03:39:05;11.23;;;3.22;;
59302;SDS011;45074;52.764;6.896;2023-07-13T03:41:33;10.45;;;3.20;;
59302;SDS011;45074;52.764;6.896;2023-07-13T03:43:59;9.68;;;3.00;;
59302;SDS011;45074;52.764;6.896;2023-07-13T03:46:24;9.43;;;2.80;;
59302;SDS011;45074;52.764;6.896;2023-07-13T03:48:50;10.60;;;3.30;;
59302;SDS011;45074;52.764;6.896;2023-07-13T03:51:16;7.70;;;3.05;;
59302;SDS011;45074;52.764;6.896;2023-07-13T03:53:43;11.05;;;3.42;;
59302;SDS011;45074;52.764;6.896;2023-07-13T03:56:10;10.45;;;3.20;;
59302;SDS011;45074;52.764;6.896;2023-07-13T03:58:37;7.82;;;2.97;;
59302;SDS011;45074;52.764;6.896;2023-07-13T04:01:04;7.70;;;2.90;;
59302;SDS011;45074;52.764;6.896;2023-07-13T04:03:31;8.07;;;2.97;;
59302;SDS011;45074;52.764;6.896;2023-07-13T04:06:01;9.65;;;3.25;;
59302;SDS011;45074;52.764;6.896;2023-07-13T04:10:55;9.05;;;3.28;;
59302;SDS011;45074;52.764;6.896;2023-07-13T04:13:21;9.00;;;3.42;;
59302;SDS011;45074;52.764;6.896;2023-07-13T04:15:47;7.53;;;3.03;;
59302;SDS011;45074;52.764;6.896;2023-07-13T04:18:13;8.70;;;3.20;;
59302;SDS011;45074;52.764;6.896;2023-07-13T04:20:38;7.72;;;3.00;;
59302;SDS011;45074;52.764;6.896;2023-07-13T04:23:04;9.98;;;3.08;;
59302;SDS011;45074;52.764;6.896;2023-07-13T04:25:30;7.97;;;3.25;;
59302;SDS011;45074;52.764;6.896;2023-07-13T04:27:55;10.35;;;3.20;;
59302;SDS011;45074;52.764;6.896;2023-07-13T04:30:21;9.88;;;3.22;;
59302;SDS011;45074;52.764;6.896;2023-07-13T04:32:50;9.57;;;3.55;;
59302;SDS011;45074;52.764;6.896;2023-07-13T04:35:17;6.35;;;3.03;;
59302;SDS011;45074;52.764;6.896;2023-07-13T04:37:46;9.38;;;3.72;;
59302;SDS011;45074;52.764;6.896;2023-07-13T04:40:13;11.90;;;3.75;;
59302;SDS011;45074;52.764;6.896;2023-07-13T04:42:39;10.27;;;3.55;;
59302;SDS011;45074;52.764;6.896;2023-07-13T04:45:06;10.32;;;3.67;;
59302;SDS011;45074;52.764;6.896;2023-07-13T04:47:32;11.60;;;3.33;;
59302;SDS011;45074;52.764;6.896;2023-07-13T04:49:58;13.27;;;3.35;;
59302;SDS011;45074;52.764;6.896;2023-07-13T04:52:24;7.80;;;3.13;;
59302;SDS011;45074;52.764;6.896;2023-07-13T04:54:49;12.73;;;3.60;;
59302;SDS011;45074;52.764;6.896;2023-07-13T04:57:15;8.60;;;3.40;;
59302;SDS011;45074;52.764;6.896;2023-07-13T04:59:41;10.32;;;3.38;;
59302;SDS011;45074;52.764;6.896;2023-07-13T05:02:06;9.13;;;3.20;;
59302;SDS011;45074;52.764;6.896;2023-07-13T05:04:32;11.95;;;3.83;;
59302;SDS011;45074;52.764;6.896;2023-07-13T05:06:59;9.77;;;3.53;;
59302;SDS011;45074;52.764;6.896;2023-07-13T05:09:24;12.90;;;3.75;;
59302;SDS011;45074;52.764;6.896;2023-07-13T05:11:50;11.60;;;3.85;;
59302;SDS011;45074;52.764;6.896;2023-07-13T05:14:16;10.27;;;3.58;;
59302;SDS011;45074;52.764;6.896;2023-07-13T05:16:42;10.90;;;3.47;;
59302;SDS011;45074;52.764;6.896;2023-07-13T05:19:08;11.23;;;3.45;;
59302;SDS011;45074;52.764;6.896;2023-07-13T05:21:34;11.52;;;3.80;;
59302;SDS011;45074;52.764;6.896;2023-07-13T05:23:59;10.80;;;3.40;;
59302;SDS011;45074;52.764;6.896;2023-07-13T05:26:25;10.68;;;3.60;;
59302;SDS011;45074;52.764;6.896;2023-07-13T05:28:51;12.90;;;3.60;;
59302;SDS011;45074;52.764;6.896;2023-07-13T05:31:16;11.13;;;3.47;;
59302;SDS011;45074;52.764;6.896;2023-07-13T05:33:42;10.63;;;3.42;;
59302;SDS011;45074;52.764;6.896;2023-07-13T05:36:07;8.85;;;3.45;;
59302;SDS011;45074;52.764;6.896;2023-07-13T05:38:33;11.05;;;3.90;;
59302;SDS011;45074;52.764;6.896;2023-07-13T05:40:59;12.48;;;3.60;;
59302;SDS011;45074;52.764;6.896;2023-07-13T05:43:25;9.43;;;3.60;;
59302;SDS011;45074;52.764;6.896;2023-07-13T05:45:52;13.23;;;3.63;;
59302;SDS011;45074;52.764;6.896;2023-07-13T05:48:19;11.77;;;3.53;;
59302;SDS011;45074;52.764;6.896;2023-07-13T05:50:45;8.88;;;3.50;;
59302;SDS011;45074;52.764;6.896;2023-07-13T05:53:11;12.00;;;3.85;;
59302;SDS011;45074;52.764;6.896;2023-07-13T05:55:40;10.15;;;3.65;;
59302;SDS011;45074;52.764;6.896;2023-07-13T05:58:12;9.23;;;3.53;;
59302;SDS011;45074;52.764;6.896;2023-07-13T06:00:39;9.60;;;3.80;;
59302;SDS011;45074;52.764;6.896;2023-07-13T06:03:05;10.70;;;3.67;;
59302;SDS011;45074;52.764;6.896;2023-07-13T06:05:32;11.40;;;3.08;;
59302;SDS011;45074;52.764;6.896;2023-07-13T06:07:58;9.60;;;3.65;;
59302;SDS011;45074;52.764;6.896;2023-07-13T06:10:24;10.82;;;3.33;;
59302;SDS011;45074;52.764;6.896;2023-07-13T06:12:50;11.18;;;3.50;;
59302;SDS011;45074;52.764;6.896;2023-07-13T06:15:16;11.07;;;3.60;;
59302;SDS011;45074;52.764;6.896;2023-07-13T06:17:42;12.32;;;3.40;;
59302;SDS011;45074;52.764;6.896;2023-07-13T06:20:08;9.65;;;3.40;;
59302;SDS011;45074;52.764;6.896;2023-07-13T06:22:34;11.15;;;3.35;;
59302;SDS011;45074;52.764;6.896;2023-07-13T06:25:00;12.02;;;3.75;;
59302;SDS011;45074;52.764;6.896;2023-07-13T06:27:25;10.80;;;3.50;;
59302;SDS011;45074;52.764;6.896;2023-07-13T06:29:51;9.15;;;2.97;;
59302;SDS011;45074;52.764;6.896;2023-07-13T06:32:17;10.05;;;3.08;;
59302;SDS011;45074;52.764;6.896;2023-07-13T06:34:42;11.05;;;3.35;;
59302;SDS011;45074;52.764;6.896;2023-07-13T06:37:08;10.13;;;3.70;;
59302;SDS011;45074;52.764;6.896;2023-07-13T06:39:34;11.00;;;3.33;;
59302;SDS011;45074;52.764;6.896;2023-07-13T06:42:00;10.60;;;3.35;;
59302;SDS011;45074;52.764;6.896;2023-07-13T06:44:26;8.95;;;3.33;;
59302;SDS011;45074;52.764;6.896;2023-07-13T06:46:52;13.15;;;3.53;;
59302;SDS011;45074;52.764;6.896;2023-07-13T06:49:18;11.18;;;3.40;;
59302;SDS011;45074;52.764;6.896;2023-07-13T06:51:44;14.10;;;3.40;;
59302;SDS011;45074;52.764;6.896;2023-07-13T06:54:09;10.13;;;3.15;;
59302;SDS011;45074;52.764;6.896;2023-07-13T06:56:36;9.55;;;3.40;;
59302;SDS011;45074;52.764;6.896;2023-07-13T06:59:01;8.88;;;2.85;;
59302;SDS011;45074;52.764;6.896;2023-07-13T07:01:27;9.88;;;3.70;;
59302;SDS011;45074;52.764;6.896;2023-07-13T07:03:52;10.20;;;3.30;;
59302;SDS011;45074;52.764;6.896;2023-07-13T07:06:19;7.35;;;3.00;;
59302;SDS011;45074;52.764;6.896;2023-07-13T07:08:48;8.68;;;2.92;;
59302;SDS011;45074;52.764;6.896;2023-07-13T07:11:16;8.43;;;3.47;;
59302;SDS011;45074;52.764;6.896;2023-07-13T07:13:44;9.57;;;3.22;;
59302;SDS011;45074;52.764;6.896;2023-07-13T07:16:09;8.73;;;3.25;;
59302;SDS011;45074;52.764;6.896;2023-07-13T07:18:35;10.98;;;3.35;;
59302;SDS011;45074;52.764;6.896;2023-07-13T07:21:01;7.45;;;3.03;;
59302;SDS011;45074;52.764;6.896;2023-07-13T07:23:27;9.98;;;3.13;;
59302;SDS011;45074;52.764;6.896;2023-07-13T07:25:53;9.75;;;3.40;;
59302;SDS011;45074;52.764;6.896;2023-07-13T07:28:18;10.63;;;4.03;;
59302;SDS011;45074;52.764;6.896;2023-07-13T07:30:45;10.02;;;3.42;;
59302;SDS011;45074;52.764;6.896;2023-07-13T07:33:11;9.35;;;3.42;;
59302;SDS011;45074;52.764;6.896;2023-07-13T07:35:36;9.20;;;3.30;;
59302;SDS011;45074;52.764;6.896;2023-07-13T07:38:02;10.82;;;3.95;;
59302;SDS011;45074;52.764;6.896;2023-07-13T07:40:28;8.93;;;3.55;;
59302;SDS011;45074;52.764;6.896;2023-07-13T07:42:54;12.43;;;3.88;;
59302;SDS011;45074;52.764;6.896;2023-07-13T07:45:20;11.63;;;3.42;;
59302;SDS011;45074;52.764;6.896;2023-07-13T07:47:45;9.50;;;3.55;;
59302;SDS011;45074;52.764;6.896;2023-07-13T07:50:11;9.82;;;3.47;;
59302;SDS011;45074;52.764;6.896;2023-07-13T07:52:37;12.60;;;3.38;;
59302;SDS011;45074;52.764;6.896;2023-07-13T07:55:03;9.63;;;3.28;;
59302;SDS011;45074;52.764;6.896;2023-07-13T07:57:30;10.93;;;3.90;;
59302;SDS011;45074;52.764;6.896;2023-07-13T07:59:56;8.98;;;3.55;;
59302;SDS011;45074;52.764;6.896;2023-07-13T08:02:21;10.40;;;3.67;;
59302;SDS011;45074;52.764;6.896;2023-07-13T08:04:47;11.50;;;4.25;;
59302;SDS011;45074;52.764;6.896;2023-07-13T08:07:12;11.70;;;3.72;;
59302;SDS011;45074;52.764;6.896;2023-07-13T08:09:38;11.10;;;4.03;;
59302;SDS011;45074;52.764;6.896;2023-07-13T08:12:04;12.13;;;4.40;;
59302;SDS011;45074;52.764;6.896;2023-07-13T08:14:30;11.13;;;4.13;;
59302;SDS011;45074;52.764;6.896;2023-07-13T08:16:55;8.77;;;3.85;;
59302;SDS011;45074;52.764;6.896;2023-07-13T08:19:21;12.90;;;4.30;;
59302;SDS011;45074;52.764;6.896;2023-07-13T08:21:47;10.15;;;3.80;;
59302;SDS011;45074;52.764;6.896;2023-07-13T08:24:14;11.07;;;4.03;;
59302;SDS011;45074;52.764;6.896;2023-07-13T08:26:39;11.73;;;4.07;;
59302;SDS011;45074;52.764;6.896;2023-07-13T08:29:05;10.32;;;3.83;;
59302;SDS011;45074;52.764;6.896;2023-07-13T08:31:31;10.65;;;4.68;;
59302;SDS011;45074;52.764;6.896;2023-07-13T08:33:56;12.07;;;4.18;;
59302;SDS011;45074;52.764;6.896;2023-07-13T08:36:22;9.90;;;4.60;;
59302;SDS011;45074;52.764;6.896;2023-07-13T08:38:48;12.50;;;4.68;;
59302;SDS011;45074;52.764;6.896;2023-07-13T08:41:21;11.32;;;4.80;;
59302;SDS011;45074;52.764;6.896;2023-07-13T08:43:49;10.35;;;4.22;;
59302;SDS011;45074;52.764;6.896;2023-07-13T08:46:24;13.80;;;4.80;;
59302;SDS011;45074;52.764;6.896;2023-07-13T08:48:52;10.55;;;4.80;;
59302;SDS011;45074;52.764;6.896;2023-07-13T08:56:44;9.07;;;4.60;;
59302;SDS011;45074;52.764;6.896;2023-07-13T08:59:13;10.25;;;4.30;;
59302;SDS011;45074;52.764;6.896;2023-07-13T09:09:49;10.32;;;4.95;;
59302;SDS011;45074;52.764;6.896;2023-07-13T09:12:31;12.00;;;4.90;;
59302;SDS011;45074;52.764;6.896;2023-07-13T09:17:56;10.57;;;5.60;;
59302;SDS011;45074;52.764;6.896;2023-07-13T09:23:13;13.48;;;6.13;;
59302;SDS011;45074;52.764;6.896;2023-07-13T09:25:53;12.98;;;6.18;;
59302;SDS011;45074;52.764;6.896;2023-07-13T09:28:28;11.73;;;5.38;;
59302;SDS011;45074;52.764;6.896;2023-07-13T09:31:11;8.30;;;3.90;;
59302;SDS011;45074;52.764;6.896;2023-07-13T09:33:41;7.00;;;3.28;;
59302;SDS011;45074;52.764;6.896;2023-07-13T09:38:46;7.95;;;2.72;;
59302;SDS011;45074;52.764;6.896;2023-07-13T09:41:33;9.23;;;3.60;;
59302;SDS011;45074;52.764;6.896;2023-07-13T09:44:36;6.43;;;2.58;;
59302;SDS011;45074;52.764;6.896;2023-07-13T09:47:03;5.97;;;2.63;;
59302;SDS011;45074;52.764;6.896;2023-07-13T09:49:43;5.82;;;2.30;;
59302;SDS011;45074;52.764;6.896;2023-07-13T09:52:14;5.63;;;2.00;;
59302;SDS011;45074;52.764;6.896;2023-07-13T09:54:44;2.72;;;1.20;;
59302;SDS011;45074;52.764;6.896;2023-07-13T09:57:16;3.22;;;1.35;;
59302;SDS011;45074;52.764;6.896;2023-07-13T10:05:04;2.70;;;1.00;;
59302;SDS011;45074;52.764;6.896;2023-07-13T10:07:35;2.78;;;1.10;;
59302;SDS011;45074;52.764;6.896;2023-07-13T10:10:12;2.60;;;1.13;;
59302;SDS011;45074;52.764;6.896;2023-07-13T10:12:41;3.40;;;1.00;;
59302;SDS011;45074;52.764;6.896;2023-07-13T10:15:13;2.67;;;1.10;;
59302;SDS011;45074;52.764;6.896;2023-07-13T10:17:41;1.60;;;1.02;;
59302;SDS011;45074;52.764;6.896;2023-07-13T10:20:09;2.33;;;1.25;;
59302;SDS011;45074;52.764;6.896;2023-07-13T10:25:25;3.35;;;1.50;;
59302;SDS011;45074;52.764;6.896;2023-07-13T10:27:53;2.42;;;1.25;;
59302;SDS011;45074;52.764;6.896;2023-07-13T10:30:24;3.33;;;1.48;;
59302;SDS011;45074;52.764;6.896;2023-07-13T10:33:00;3.10;;;1.52;;
59302;SDS011;45074;52.764;6.896;2023-07-13T10:35:29;3.33;;;1.67;;
59302;SDS011;45074;52.764;6.896;2023-07-13T10:40:37;4.32;;;2.30;;
59302;SDS011;45074;52.764;6.896;2023-07-13T10:43:13;5.10;;;2.30;;
59302;SDS011;45074;52.764;6.896;2023-07-13T10:45:41;4.97;;;2.60;;
59302;SDS011;45074;52.764;6.896;2023-07-13T10:48:10;5.82;;;3.60;;
59302;SDS011;45074;52.764;6.896;2023-07-13T10:50:38;6.15;;;4.00;;
59302;SDS011;45074;52.764;6.896;2023-07-13T10:56:16;8.05;;;6.00;;
59302;SDS011;45074;52.764;6.896;2023-07-13T10:58:50;13.52;;;6.40;;
59302;SDS011;45074;52.764;6.896;2023-07-13T11:01:53;9.70;;;6.05;;
59302;SDS011;45074;52.764;6.896;2023-07-13T11:04:25;9.52;;;6.28;;
59302;SDS011;45074;52.764;6.896;2023-07-13T11:06:56;9.48;;;6.00;;
59302;SDS011;45074;52.764;6.896;2023-07-13T11:09:39;11.10;;;6.82;;
59302;SDS011;45074;52.764;6.896;2023-07-13T11:12:09;9.65;;;6.07;;
59302;SDS011;45074;52.764;6.896;2023-07-13T11:17:46;10.00;;;6.63;;
59302;SDS011;45074;52.764;6.896;2023-07-13T11:22:46;10.48;;;6.22;;
59302;SDS011;45074;52.764;6.896;2023-07-13T11:25:37;10.27;;;6.22;;
59302;SDS011;45074;52.764;6.896;2023-07-13T11:30:37;12.38;;;6.43;;
59302;SDS011;45074;52.764;6.896;2023-07-13T11:36:14;7.40;;;4.20;;
59302;SDS011;45074;52.764;6.896;2023-07-13T11:38:42;6.20;;;3.40;;
59302;SDS011;45074;52.764;6.896;2023-07-13T11:41:17;5.70;;;3.10;;
59302;SDS011;45074;52.764;6.896;2023-07-13T11:43:50;4.50;;;2.60;;
59302;SDS011;45074;52.764;6.896;2023-07-13T11:46:22;5.05;;;2.90;;
59302;SDS011;45074;52.764;6.896;2023-07-13T11:48:51;4.78;;;2.83;;
59302;SDS011;45074;52.764;6.896;2023-07-13T11:51:23;5.18;;;2.97;;
59302;SDS011;45074;52.764;6.896;2023-07-13T11:53:53;5.30;;;3.20;;
59302;SDS011;45074;52.764;6.896;2023-07-13T11:56:20;4.70;;;2.92;;
59302;SDS011;45074;52.764;6.896;2023-07-13T11:58:51;5.70;;;3.40;;
59302;SDS011;45074;52.764;6.896;2023-07-13T12:01:29;4.97;;;3.05;;
59302;SDS011;45074;52.764;6.896;2023-07-13T12:03:58;5.97;;;3.55;;
59302;SDS011;45074;52.764;6.896;2023-07-13T12:06:29;5.47;;;3.72;;
59302;SDS011;45074;52.764;6.896;2023-07-13T12:08:57;6.82;;;4.03;;
59302;SDS011;45074;52.764;6.896;2023-07-13T12:11:28;5.75;;;3.90;;
59302;SDS011;45074;52.764;6.896;2023-07-13T12:13:54;6.93;;;4.10;;
59302;SDS011;45074;52.764;6.896;2023-07-13T12:16:25;7.50;;;4.13;;
59302;SDS011;45074;52.764;6.896;2023-07-13T12:18:55;7.78;;;4.15;;
59302;SDS011;45074;52.764;6.896;2023-07-13T12:21:23;8.13;;;3.92;;
59302;SDS011;45074;52.764;6.896;2023-07-13T12:23:56;7.82;;;4.30;;
59302;SDS011;45074;52.764;6.896;2023-07-13T12:26:21;7.80;;;3.80;;
59302;SDS011;45074;52.764;6.896;2023-07-13T12:28:48;6.40;;;3.97;;
59302;SDS011;45074;52.764;6.896;2023-07-13T12:31:30;7.15;;;4.38;;
59302;SDS011;45074;52.764;6.896;2023-07-13T12:34:08;8.18;;;4.35;;
59302;SDS011;45074;52.764;6.896;2023-07-13T12:36:52;7.70;;;4.30;;
59302;SDS011;45074;52.764;6.896;2023-07-13T12:39:24;6.97;;;4.20;;
59302;SDS011;45074;52.764;6.896;2023-07-13T12:42:00;7.03;;;4.10;;
59302;SDS011;45074;52.764;6.896;2023-07-13T12:44:52;8.30;;;4.40;;
59302;SDS011;45074;52.764;6.896;2023-07-13T12:47:40;8.48;;;4.68;;
59302;SDS011;45074;52.764;6.896;2023-07-13T12:50:14;6.85;;;4.15;;
59302;SDS011;45074;52.764;6.896;2023-07-13T12:52:42;7.38;;;4.55;;
59302;SDS011;45074;52.764;6.896;2023-07-13T12:55:14;8.52;;;4.68;;
59302;SDS011;45074;52.764;6.896;2023-07-13T12:57:51;8.60;;;4.30;;
59302;SDS011;45074;52.764;6.896;2023-07-13T13:00:23;12.35;;;5.88;;
59302;SDS011;45074;52.764;6.896;2023-07-13T13:02:53;12.60;;;5.15;;
59302;SDS011;45074;52.764;6.896;2023-07-13T13:05:21;10.18;;;5.47;;
59302;SDS011;45074;52.764;6.896;2023-07-13T13:07:48;10.55;;;4.93;;
59302;SDS011;45074;52.764;6.896;2023-07-13T13:10:15;23.80;;;6.75;;
59302;SDS011;45074;52.764;6.896;2023-07-13T13:12:41;7.78;;;4.40;;
59302;SDS011;45074;52.764;6.896;2023-07-13T13:15:10;8.68;;;4.18;;
59302;SDS011;45074;52.764;6.896;2023-07-13T13:17:39;8.65;;;4.55;;
59302;SDS011;45074;52.764;6.896;2023-07-13T13:20:18;8.40;;;4.32;;
59302;SDS011;45074;52.764;6.896;2023-07-13T13:22:46;7.15;;;3.92;;
59302;SDS011;45074;52.764;6.896;2023-07-13T13:25:12;7.68;;;3.13;;
59302;SDS011;45074;52.764;6.896;2023-07-13T13:27:42;6.78;;;3.20;;
59302;SDS011;45074;52.764;6.896;2023-07-13T13:30:13;4.05;;;2.10;;
59302;SDS011;45074;52.764;6.896;2023-07-13T13:32:41;5.93;;;2.20;;
59302;SDS011;45074;52.764;6.896;2023-07-13T13:35:18;5.32;;;2.00;;
59302;SDS011;45074;52.764;6.896;2023-07-13T13:37:45;5.32;;;2.13;;
59302;SDS011;45074;52.764;6.896;2023-07-13T13:40:16;4.25;;;2.00;;
59302;SDS011;45074;52.764;6.896;2023-07-13T13:42:44;4.95;;;1.67;;
59302;SDS011;45074;52.764;6.896;2023-07-13T13:45:10;5.10;;;1.73;;
59302;SDS011;45074;52.764;6.896;2023-07-13T13:47:37;6.30;;;1.92;;
59302;SDS011;45074;52.764;6.896;2023-07-13T13:50:17;3.92;;;1.50;;
59302;SDS011;45074;52.764;6.896;2023-07-13T13:52:45;4.65;;;1.73;;
59302;SDS011;45074;52.764;6.896;2023-07-13T13:55:14;6.03;;;1.80;;
59302;SDS011;45074;52.764;6.896;2023-07-13T13:57:43;4.25;;;1.77;;
59302;SDS011;45074;52.764;6.896;2023-07-13T14:00:13;4.03;;;1.70;;
59302;SDS011;45074;52.764;6.896;2023-07-13T14:02:46;4.22;;;1.50;;
59302;SDS011;45074;52.764;6.896;2023-07-13T14:05:14;4.63;;;1.52;;
59302;SDS011;45074;52.764;6.896;2023-07-13T14:07:44;6.05;;;1.48;;
59302;SDS011;45074;52.764;6.896;2023-07-13T14:10:14;3.92;;;1.77;;
59302;SDS011;45074;52.764;6.896;2023-07-13T14:12:44;4.43;;;1.80;;
59302;SDS011;45074;52.764;6.896;2023-07-13T14:15:23;2.88;;;1.48;;
59302;SDS011;45074;52.764;6.896;2023-07-13T14:17:49;3.63;;;1.30;;
59302;SDS011;45074;52.764;6.896;2023-07-13T14:20:16;3.97;;;1.48;;
59302;SDS011;45074;52.764;6.896;2023-07-13T14:22:43;3.97;;;1.30;;
59302;SDS011;45074;52.764;6.896;2023-07-13T14:25:11;4.70;;;1.50;;
59302;SDS011;45074;52.764;6.896;2023-07-13T14:27:37;4.22;;;1.30;;
59302;SDS011;45074;52.764;6.896;2023-07-13T14:30:08;3.30;;;1.30;;
59302;SDS011;45074;52.764;6.896;2023-07-13T14:32:40;5.28;;;1.58;;
59302;SDS011;45074;52.764;6.896;2023-07-13T14:35:07;4.93;;;1.30;;
59302;SDS011;45074;52.764;6.896;2023-07-13T14:40:04;4.65;;;1.30;;
59302;SDS011;45074;52.764;6.896;2023-07-13T14:42:41;3.33;;;1.40;;
59302;SDS011;45074;52.764;6.896;2023-07-13T14:45:12;3.53;;;1.30;;
59302;SDS011;45074;52.764;6.896;2023-07-13T14:47:42;4.65;;;1.40;;
59302;SDS011;45074;52.764;6.896;2023-07-13T14:50:13;3.38;;;1.30;;
59302;SDS011;45074;52.764;6.896;2023-07-13T14:52:43;3.05;;;1.30;;
59302;SDS011;45074;52.764;6.896;2023-07-13T14:55:14;3.72;;;1.42;;
59302;SDS011;45074;52.764;6.896;2023-07-13T14:57:42;4.43;;;1.45;;
59302;SDS011;45074;52.764;6.896;2023-07-13T15:02:41;3.40;;;1.25;;
59302;SDS011;45074;52.764;6.896;2023-07-13T15:05:13;3.00;;;1.50;;
59302;SDS011;45074;52.764;6.896;2023-07-13T15:07:41;4.63;;;1.40;;
59302;SDS011;45074;52.764;6.896;2023-07-13T15:10:15;2.90;;;1.33;;
59302;SDS011;45074;52.764;6.896;2023-07-13T15:12:41;5.32;;;1.30;;
59302;SDS011;45074;52.764;6.896;2023-07-13T15:15:07;5.05;;;1.58;;
59302;SDS011;45074;52.764;6.896;2023-07-13T15:17:37;3.95;;;1.50;;
59302;SDS011;45074;52.764;6.896;2023-07-13T15:22:57;3.97;;;1.23;;
59302;SDS011;45074;52.764;6.896;2023-07-13T15:25:25;3.80;;;1.20;;
59302;SDS011;45074;52.764;6.896;2023-07-13T15:27:53;4.03;;;1.50;;
59302;SDS011;45074;52.764;6.896;2023-07-13T15:30:20;4.20;;;1.27;;
59302;SDS011;45074;52.764;6.896;2023-07-13T15:32:47;5.95;;;1.70;;
59302;SDS011;45074;52.764;6.896;2023-07-13T15:35:17;3.30;;;1.50;;
59302;SDS011;45074;52.764;6.896;2023-07-13T15:37:44;5.05;;;1.48;;
59302;SDS011;45074;52.764;6.896;2023-07-13T15:40:11;3.00;;;1.20;;
59302;SDS011;45074;52.764;6.896;2023-07-13T15:42:38;4.07;;;1.40;;
59302;SDS011;45074;52.764;6.896;2023-07-13T15:45:17;5.30;;;1.40;;
59302;SDS011;45074;52.764;6.896;2023-07-13T15:47:43;4.40;;;1.50;;
59302;SDS011;45074;52.764;6.896;2023-07-13T15:50:16;3.63;;;1.35;;